Time;durP1;ratioP1;P1;durP2;ratioP2;P2;SDS_P1;SDS_P2;PMS_P1;PMS_P2;Temp;Humidity;BMP_temperature;BMP_pressure;BME280_temperature;BME280_humidity;BME280_pressure;Samples;Min_cycle;Max_cycle;Signal;HPM_P1;HPM_P2
2023/07/09 00:02:24;;;;;;;2.65;2.50;;;;;;;;;;6002863;29;20248;-71
2023/07/09 00:05:28;;;;;;;3.63;2.50;;;;;;;;;;6001848;29;20309;-70
2023/07/09 00:08:33;;;;;;;2.40;2.30;;;;;;;;;;5994207;29;20288;-70
2023/07/09 00:11:38;;;;;;;2.63;2.50;;;;;;;;;;5980463;29;20240;-69
2023/07/09 00:14:44;;;;;;;3.10;2.78;;;;;;;;;;5980321;29;20272;-70
2023/07/09 00:17:49;;;;;;;2.45;2.30;;;;;;;;;;5980173;29;20522;-70
2023/07/09 00:20:54;;;;;;;3.08;2.45;;;;;;;;;;5980209;29;20253;-69
2023/07/09 00:24:04;;;;;;;7.25;2.45;;;;;;;;;;5980218;29;20463;-71
2023/07/09 00:27:10;;;;;;;3.70;2.92;;;;;;;;;;5980179;29;20253;-70
2023/07/09 00:30:18;;;;;;;2.35;2.30;;;;;;;;;;5979883;29;20244;-71
2023/07/09 00:33:27;;;;;;;2.53;2.40;;;;;;;;;;5979722;29;20431;-69
2023/07/09 00:36:33;;;;;;;2.42;2.22;;;;;;;;;;5963764;29;20312;-70
2023/07/09 00:39:37;;;;;;;2.28;2.17;;;;;;;;;;5993858;29;20287;-70
2023/07/09 00:42:45;;;;;;;3.17;2.88;;;;;;;;;;5993710;29;20348;-69
2023/07/09 00:46:15;;;;;;;2.30;2.30;;;;;;;;;;5993310;29;20287;-69
2023/07/09 00:49:29;;;;;;;2.20;2.10;;;;;;;;;;5979648;29;20392;-71
2023/07/09 00:52:36;;;;;;;4.57;2.30;;;;;;;;;;5979402;29;20252;-71
2023/07/09 00:55:45;;;;;;;2.60;2.50;;;;;;;;;;5992668;29;20300;-71
2023/07/09 00:58:50;;;;;;;2.60;2.40;;;;;;;;;;5980729;29;20256;-70
2023/07/09 01:01:57;;;;;;;2.33;2.33;;;;;;;;;;5963220;29;20284;-70
2023/07/09 01:05:03;;;;;;;2.67;2.58;;;;;;;;;;5979125;29;20270;-70
2023/07/09 01:08:09;;;;;;;5.43;2.70;;;;;;;;;;5992791;29;20271;-69
2023/07/09 01:11:20;;;;;;;2.70;2.65;;;;;;;;;;5985360;29;20283;-72
2023/07/09 01:14:26;;;;;;;2.67;2.63;;;;;;;;;;6001648;29;20248;-71
2023/07/09 01:17:32;;;;;;;5.18;2.67;;;;;;;;;;5998416;29;20326;-70
2023/07/09 01:20:39;;;;;;;2.75;2.67;;;;;;;;;;6022921;29;20278;-70
2023/07/09 01:23:45;;;;;;;2.80;2.60;;;;;;;;;;6022534;29;20282;-71
2023/07/09 01:26:50;;;;;;;2.65;2.65;;;;;;;;;;6024327;29;20527;-70
2023/07/09 01:29:56;;;;;;;2.85;2.55;;;;;;;;;;6023948;29;20248;-69
2023/07/09 01:33:01;;;;;;;2.58;2.50;;;;;;;;;;6022288;29;20292;-70
2023/07/09 01:36:07;;;;;;;3.92;2.72;;;;;;;;;;6023990;29;20278;-70
2023/07/09 01:39:13;;;;;;;2.70;2.60;;;;;;;;;;6024139;29;20239;-70
2023/07/09 01:42:18;;;;;;;2.78;2.70;;;;;;;;;;6007410;29;20279;-69
2023/07/09 01:45:23;;;;;;;3.03;2.70;;;;;;;;;;6021999;29;20278;-69
2023/07/09 01:48:28;;;;;;;2.67;2.58;;;;;;;;;;6007163;29;20282;-70
2023/07/09 01:51:32;;;;;;;2.38;2.38;;;;;;;;;;6023829;29;20415;-70
2023/07/09 01:54:38;;;;;;;2.67;2.58;;;;;;;;;;6007267;29;20286;-70
2023/07/09 01:57:45;;;;;;;5.30;2.88;;;;;;;;;;6023652;29;20267;-70
2023/07/09 02:00:50;;;;;;;3.10;2.88;;;;;;;;;;6007487;29;20286;-70
2023/07/09 02:03:54;;;;;;;2.83;2.50;;;;;;;;;;6023882;29;20246;-71
2023/07/09 02:06:59;;;;;;;4.45;2.95;;;;;;;;;;6016149;29;20278;-70
2023/07/09 02:10:05;;;;;;;3.63;2.72;;;;;;;;;;6014472;29;20279;-69
2023/07/09 02:13:10;;;;;;;2.38;2.28;;;;;;;;;;5984687;29;20494;-70
2023/07/09 02:16:15;;;;;;;2.13;2.13;;;;;;;;;;6000286;29;20587;-69
2023/07/09 02:19:19;;;;;;;3.38;2.50;;;;;;;;;;6000998;29;20392;-68
2023/07/09 02:22:24;;;;;;;2.97;2.83;;;;;;;;;;6001779;29;20535;-69
2023/07/09 02:25:30;;;;;;;3.25;2.53;;;;;;;;;;5984435;29;20304;-69
2023/07/09 02:28:35;;;;;;;2.88;2.67;;;;;;;;;;6000568;29;20382;-69
2023/07/09 02:31:40;;;;;;;2.65;2.55;;;;;;;;;;6000843;29;20251;-70
2023/07/09 02:34:48;;;;;;;2.72;2.63;;;;;;;;;;6000345;29;20247;-70
2023/07/09 02:37:54;;;;;;;2.47;2.45;;;;;;;;;;5983723;29;20310;-70
2023/07/09 02:41:00;;;;;;;2.97;2.58;;;;;;;;;;5999466;29;20541;-69
2023/07/09 02:44:05;;;;;;;2.63;2.53;;;;;;;;;;6000574;29;20247;-69
2023/07/09 02:47:10;;;;;;;2.55;2.50;;;;;;;;;;6000504;29;20516;-69
2023/07/09 02:50:15;;;;;;;2.63;2.45;;;;;;;;;;5998679;29;20283;-70
2023/07/09 02:53:19;;;;;;;2.35;2.25;;;;;;;;;;6000521;29;20248;-70
2023/07/09 02:56:26;;;;;;;4.32;2.40;;;;;;;;;;5999845;29;20292;-68
2023/07/09 02:59:30;;;;;;;2.80;2.60;;;;;;;;;;5984390;29;20283;-70
2023/07/09 03:02:35;;;;;;;2.80;2.67;;;;;;;;;;5999076;29;20283;-69
2023/07/09 03:05:40;;;;;;;2.75;2.63;;;;;;;;;;5999365;29;20275;-70
2023/07/09 03:08:44;;;;;;;2.50;2.50;;;;;;;;;;6021328;29;20291;-71
2023/07/09 03:11:50;;;;;;;2.80;2.47;;;;;;;;;;6020761;29;20278;-70
2023/07/09 03:14:55;;;;;;;2.90;2.70;;;;;;;;;;6022455;29;20247;-69
2023/07/09 03:18:00;;;;;;;2.90;2.80;;;;;;;;;;6023317;29;20614;-71
2023/07/09 03:21:05;;;;;;;2.85;2.75;;;;;;;;;;6025269;29;20308;-69
2023/07/09 03:24:10;;;;;;;3.28;2.80;;;;;;;;;;6025717;29;20278;-69
2023/07/09 03:27:16;;;;;;;3.25;3.05;;;;;;;;;;6026949;29;20254;-70
2023/07/09 03:30:21;;;;;;;3.35;3.00;;;;;;;;;;6025043;29;20279;-69
2023/07/09 03:33:25;;;;;;;3.03;3.03;;;;;;;;;;6027623;29;20302;-69
2023/07/09 03:36:30;;;;;;;2.72;2.63;;;;;;;;;;6009490;29;20326;-69
2023/07/09 03:39:35;;;;;;;3.20;3.10;;;;;;;;;;6026460;29;20342;-70
2023/07/09 03:42:40;;;;;;;2.97;2.88;;;;;;;;;;6026375;29;20243;-70
2023/07/09 03:45:46;;;;;;;3.30;3.10;;;;;;;;;;6026287;29;20247;-70
2023/07/09 03:48:51;;;;;;;3.38;3.13;;;;;;;;;;6026643;29;20255;-69
2023/07/09 03:51:55;;;;;;;3.30;3.20;;;;;;;;;;6026124;29;20342;-70
2023/07/09 03:55:00;;;;;;;3.08;2.97;;;;;;;;;;6025839;29;20247;-70
2023/07/09 03:58:06;;;;;;;3.50;3.30;;;;;;;;;;6025977;29;20278;-69
2023/07/09 04:01:11;;;;;;;3.35;3.25;;;;;;;;;;6025920;29;20251;-69
2023/07/09 04:04:20;;;;;;;3.65;3.50;;;;;;;;;;6026034;29;20251;-69
2023/07/09 04:07:24;;;;;;;4.75;3.53;;;;;;;;;;6017237;29;20252;-69
2023/07/09 04:10:29;;;;;;;3.35;3.25;;;;;;;;;;6002885;29;20251;-71
2023/07/09 04:13:35;;;;;;;3.33;3.22;;;;;;;;;;6003062;29;20239;-71
2023/07/09 04:16:40;;;;;;;3.13;3.05;;;;;;;;;;6002741;29;20302;-71
2023/07/09 04:19:45;;;;;;;3.67;3.40;;;;;;;;;;6003133;29;20249;-70
2023/07/09 04:22:50;;;;;;;3.40;3.22;;;;;;;;;;6002560;29;20257;-70
2023/07/09 04:25:54;;;;;;;3.22;2.97;;;;;;;;;;6002408;29;20248;-71
2023/07/09 04:29:01;;;;;;;3.30;3.20;;;;;;;;;;6002716;29;20264;-70
2023/07/09 04:32:07;;;;;;;3.75;3.55;;;;;;;;;;6002894;29;20248;-70
2023/07/09 04:35:12;;;;;;;3.20;3.20;;;;;;;;;;5995363;29;20248;-70
2023/07/09 04:38:17;;;;;;;3.38;3.22;;;;;;;;;;6002335;29;20275;-70
2023/07/09 04:41:21;;;;;;;3.60;3.40;;;;;;;;;;6002226;29;20251;-70
2023/07/09 04:44:27;;;;;;;4.50;4.22;;;;;;;;;;6002610;29;20243;-71
2023/07/09 04:47:32;;;;;;;4.85;4.68;;;;;;;;;;5985834;29;20420;-69
2023/07/09 04:50:37;;;;;;;4.20;4.05;;;;;;;;;;6002870;29;20243;-70
2023/07/09 04:53:42;;;;;;;10.02;4.20;;;;;;;;;;6002675;29;20252;-70
2023/07/09 04:56:46;;;;;;;4.20;4.10;;;;;;;;;;6001784;29;20446;-71
2023/07/09 04:59:52;;;;;;;4.28;4.05;;;;;;;;;;6002136;29;20271;-70
2023/07/09 05:02:57;;;;;;;4.22;3.95;;;;;;;;;;6001960;29;20249;-71
2023/07/09 05:06:01;;;;;;;4.03;3.83;;;;;;;;;;6001700;29;20289;-70
2023/07/09 05:09:06;;;;;;;4.38;4.20;;;;;;;;;;6023362;29;20251;-70
2023/07/09 05:12:11;;;;;;;4.38;4.15;;;;;;;;;;6024438;29;20247;-69
2023/07/09 05:15:18;;;;;;;3.92;3.83;;;;;;;;;;6024040;29;20330;-69
2023/07/09 05:18:23;;;;;;;4.50;4.25;;;;;;;;;;6022435;29;20594;-70
2023/07/09 05:21:28;;;;;;;3.70;3.60;;;;;;;;;;6022711;29;20493;-69
2023/07/09 05:24:33;;;;;;;3.60;3.50;;;;;;;;;;6024218;29;20251;-71
2023/07/09 05:27:38;;;;;;;4.70;4.30;;;;;;;;;;6023709;29;20247;-70
2023/07/09 05:30:44;;;;;;;4.38;3.97;;;;;;;;;;6023956;29;20247;-70
2023/07/09 05:33:49;;;;;;;4.78;4.60;;;;;;;;;;6024424;29;20247;-70
2023/07/09 05:36:54;;;;;;;4.60;4.40;;;;;;;;;;6007397;29;20441;-70
2023/07/09 05:39:58;;;;;;;3.97;3.88;;;;;;;;;;6023275;29;20288;-71
2023/07/09 05:43:03;;;;;;;4.25;4.05;;;;;;;;;;6024097;29;20246;-70
2023/07/09 05:46:09;;;;;;;4.90;4.57;;;;;;;;;;6024011;29;20239;-71
2023/07/09 05:49:13;;;;;;;4.90;4.60;;;;;;;;;;6024046;29;20251;-70
2023/07/09 05:52:18;;;;;;;5.25;4.85;;;;;;;;;;6023654;29;20246;-69
2023/07/09 05:55:22;;;;;;;4.85;4.65;;;;;;;;;;6006507;29;20381;-70
2023/07/09 05:58:27;;;;;;;4.13;3.92;;;;;;;;;;6023498;29;20270;-70
2023/07/09 06:01:33;;;;;;;3.85;3.55;;;;;;;;;;6023304;29;20246;-71
2023/07/09 06:04:38;;;;;;;3.50;3.50;;;;;;;;;;6023325;29;20247;-71
2023/07/09 06:07:42;;;;;;;3.65;3.55;;;;;;;;;;6012076;29;20264;-70
2023/07/09 06:10:55;;;;;;;3.53;3.35;;;;;;;;;;6002473;29;20251;-70
2023/07/09 06:13:59;;;;;;;3.65;3.55;;;;;;;;;;6000900;29;20247;-70
2023/07/09 06:17:06;;;;;;;3.70;3.60;;;;;;;;;;6000840;29;20457;-70
2023/07/09 06:20:11;;;;;;;4.20;4.07;;;;;;;;;;6000742;29;20272;-70
2023/07/09 06:23:16;;;;;;;3.97;3.88;;;;;;;;;;6000859;29;20244;-70
2023/07/09 06:26:21;;;;;;;3.75;3.65;;;;;;;;;;6000431;29;20251;-71
2023/07/09 06:29:26;;;;;;;3.50;3.30;;;;;;;;;;6000707;29;20252;-69
2023/07/09 06:32:32;;;;;;;3.95;3.75;;;;;;;;;;6000457;29;20256;-70
2023/07/09 06:35:36;;;;;;;3.60;3.55;;;;;;;;;;6000736;29;20248;-71
2023/07/09 06:38:41;;;;;;;3.75;3.60;;;;;;;;;;6001096;29;20284;-70
2023/07/09 06:41:45;;;;;;;3.35;3.25;;;;;;;;;;6000861;29;20243;-70
2023/07/09 06:45:11;;;;;;;3.85;3.47;;;;;;;;;;5984466;29;20418;-70
2023/07/09 06:48:17;;;;;;;3.20;3.00;;;;;;;;;;6000654;29;20535;-69
2023/07/09 06:51:21;;;;;;;3.15;3.05;;;;;;;;;;6000946;29;20267;-70
2023/07/09 06:54:27;;;;;;;3.75;3.45;;;;;;;;;;6004615;29;20248;-71
2023/07/09 06:57:31;;;;;;;5.70;3.25;;;;;;;;;;6004704;29;20244;-70
2023/07/09 07:00:36;;;;;;;3.42;3.22;;;;;;;;;;6004172;29;20271;-71
2023/07/09 07:03:42;;;;;;;3.20;3.20;;;;;;;;;;6004203;29;20458;-70
2023/07/09 07:06:47;;;;;;;3.80;3.50;;;;;;;;;;6000103;29;20240;-70
2023/07/09 07:09:54;;;;;;;3.10;2.90;;;;;;;;;;6006907;29;20282;-70
2023/07/09 07:12:58;;;;;;;2.90;2.90;;;;;;;;;;6026816;29;20263;-69
2023/07/09 07:16:03;;;;;;;3.40;2.80;;;;;;;;;;6026721;29;20313;-70
2023/07/09 07:19:10;;;;;;;2.70;2.60;;;;;;;;;;6026618;29;20460;-70
2023/07/09 07:22:15;;;;;;;2.50;2.50;;;;;;;;;;6027878;29;20255;-69
2023/07/09 07:25:19;;;;;;;4.72;3.40;;;;;;;;;;6026866;29;20247;-70
2023/07/09 07:28:24;;;;;;;2.50;2.50;;;;;;;;;;6026867;29;20250;-70
2023/07/09 07:31:29;;;;;;;2.85;2.65;;;;;;;;;;6026367;29;20434;-70
2023/07/09 07:34:35;;;;;;;3.85;2.60;;;;;;;;;;6026623;29;20247;-70
2023/07/09 07:37:39;;;;;;;2.80;2.80;;;;;;;;;;6026246;29;20262;-70
2023/07/09 07:40:46;;;;;;;2.47;2.38;;;;;;;;;;6026210;29;20271;-70
2023/07/09 07:43:50;;;;;;;3.28;3.10;;;;;;;;;;6026163;29;20248;-70
2023/07/09 07:46:55;;;;;;;3.15;3.03;;;;;;;;;;6040622;29;20286;-70
2023/07/09 07:50:01;;;;;;;2.65;2.60;;;;;;;;;;6025790;29;20247;-70
2023/07/09 07:53:07;;;;;;;2.58;2.50;;;;;;;;;;6025071;29;20298;-70
2023/07/09 07:56:12;;;;;;;2.95;2.75;;;;;;;;;;6025849;29;20252;-69
2023/07/09 07:59:18;;;;;;;2.75;2.65;;;;;;;;;;6026360;29;20278;-71
2023/07/09 08:02:24;;;;;;;2.65;2.55;;;;;;;;;;6025306;29;20247;-70
2023/07/09 08:05:30;;;;;;;3.00;2.90;;;;;;;;;;6025605;29;20532;-70
2023/07/09 08:08:35;;;;;;;3.08;2.97;;;;;;;;;;6007959;29;20248;-70
2023/07/09 08:11:39;;;;;;;3.50;3.40;;;;;;;;;;6003017;29;20247;-69
2023/07/09 08:14:47;;;;;;;2.90;2.90;;;;;;;;;;6003194;29;20315;-70
2023/07/09 08:17:51;;;;;;;2.80;2.80;;;;;;;;;;5986586;29;20471;-70
2023/07/09 08:20:58;;;;;;;2.97;2.97;;;;;;;;;;5980051;29;20264;-69
2023/07/09 08:24:03;;;;;;;3.28;3.00;;;;;;;;;;5980017;29;20256;-69
2023/07/09 08:27:09;;;;;;;2.90;2.80;;;;;;;;;;5980350;29;20248;-71
2023/07/09 08:30:14;;;;;;;3.30;3.20;;;;;;;;;;5979804;29;20257;-69
2023/07/09 08:33:18;;;;;;;2.75;2.63;;;;;;;;;;5979775;29;20244;-69
2023/07/09 08:36:25;;;;;;;2.60;2.60;;;;;;;;;;5980032;29;20253;-70
2023/07/09 08:39:32;;;;;;;3.17;3.08;;;;;;;;;;5979967;29;20272;-70
2023/07/09 08:42:42;;;;;;;2.80;2.70;;;;;;;;;;5963998;29;20450;-70
2023/07/09 08:46:09;;;;;;;2.55;2.55;;;;;;;;;;5980492;29;20245;-70
2023/07/09 08:49:19;;;;;;;2.63;2.63;;;;;;;;;;5979812;29;20252;-70
2023/07/09 08:52:29;;;;;;;3.03;3.03;;;;;;;;;;5979545;29;20248;-70
2023/07/09 08:55:40;;;;;;;2.78;2.78;;;;;;;;;;5979251;29;20256;-69
2023/07/09 08:58:45;;;;;;;3.90;2.33;;;;;;;;;;5978710;29;20521;-69
2023/07/09 09:01:55;;;;;;;2.80;2.80;;;;;;;;;;5979589;29;20268;-70
2023/07/09 09:04:59;;;;;;;3.25;3.00;;;;;;;;;;5979129;29;20245;-70
2023/07/09 09:08:13;;;;;;;3.00;3.00;;;;;;;;;;5978793;29;20252;-69
2023/07/09 09:11:23;;;;;;;2.85;2.85;;;;;;;;;;5979376;29;20256;-71
2023/07/09 09:14:30;;;;;;;3.20;3.00;;;;;;;;;;5978251;29;20245;-69
2023/07/09 09:17:36;;;;;;;2.90;2.90;;;;;;;;;;5978762;29;20295;-70
2023/07/09 09:20:42;;;;;;;3.13;3.00;;;;;;;;;;5978662;29;20288;-70
2023/07/09 09:23:52;;;;;;;2.95;2.95;;;;;;;;;;5992533;29;20276;-70
2023/07/09 09:26:59;;;;;;;3.33;3.00;;;;;;;;;;6001087;29;20256;-70
2023/07/09 09:30:04;;;;;;;3.42;3.40;;;;;;;;;;6001155;29;20497;-70
2023/07/09 09:33:11;;;;;;;3.20;3.00;;;;;;;;;;6001099;29;20251;-70
2023/07/09 09:36:19;;;;;;;2.70;2.50;;;;;;;;;;6000629;29;20244;-71
2023/07/09 09:39:27;;;;;;;3.28;3.17;;;;;;;;;;6001015;29;20268;-71
2023/07/09 09:42:31;;;;;;;3.22;3.03;;;;;;;;;;6000774;29;20456;-71
2023/07/09 09:45:38;;;;;;;2.92;2.92;;;;;;;;;;6000609;29;20538;-70
2023/07/09 09:48:46;;;;;;;2.55;2.55;;;;;;;;;;6000975;29;20239;-70
2023/07/09 09:51:51;;;;;;;2.58;2.58;;;;;;;;;;6001271;29;20471;-70
2023/07/09 09:55:04;;;;;;;2.70;2.70;;;;;;;;;;6000395;29;20301;-71
2023/07/09 09:58:14;;;;;;;2.53;2.42;;;;;;;;;;6000661;29;20541;-69
2023/07/09 10:01:22;;;;;;;3.28;3.15;;;;;;;;;;6000492;29;20283;-70
2023/07/09 10:04:27;;;;;;;3.22;3.00;;;;;;;;;;6000513;29;20482;-70
2023/07/09 10:07:35;;;;;;;2.90;2.80;;;;;;;;;;5990733;29;20440;-70
2023/07/09 10:10:45;;;;;;;2.95;2.85;;;;;;;;;;5977740;29;20252;-70
2023/07/09 10:13:49;;;;;;;2.83;2.72;;;;;;;;;;5961274;29;20446;-70
2023/07/09 10:16:59;;;;;;;3.20;3.10;;;;;;;;;;5977262;29;20441;-70
2023/07/09 10:20:10;;;;;;;2.78;2.78;;;;;;;;;;5977765;29;20532;-71
2023/07/09 10:23:21;;;;;;;2.13;2.13;;;;;;;;;;5977747;29;20248;-70
2023/07/09 10:26:33;;;;;;;3.92;2.53;;;;;;;;;;5977111;29;20248;-71
2023/07/09 10:29:54;;;;;;;2.47;2.30;;;;;;;;;;5977511;29;20476;-70
2023/07/09 10:33:10;;;;;;;2.60;2.60;;;;;;;;;;5977493;29;20432;-69
2023/07/09 10:36:32;;;;;;;2.70;2.70;;;;;;;;;;5977390;29;20248;-70
2023/07/09 10:39:39;;;;;;;3.05;3.03;;;;;;;;;;5977299;29;20257;-71
2023/07/09 10:42:48;;;;;;;2.40;2.30;;;;;;;;;;5977397;29;20271;-72
2023/07/09 10:45:57;;;;;;;2.35;2.35;;;;;;;;;;5977267;29;20252;-71
2023/07/09 10:49:02;;;;;;;2.50;2.38;;;;;;;;;;5977320;29;20248;-70
2023/07/09 10:52:14;;;;;;;2.22;2.22;;;;;;;;;;5977234;29;20273;-70
2023/07/09 10:55:24;;;;;;;1.90;1.90;;;;;;;;;;5977374;29;20248;-70
2023/07/09 10:58:35;;;;;;;2.10;2.00;;;;;;;;;;5976904;29;20244;-70
2023/07/09 11:01:42;;;;;;;2.33;2.33;;;;;;;;;;5977160;29;20268;-70
2023/07/09 11:04:50;;;;;;;2.30;2.30;;;;;;;;;;5976842;29;20252;-70
2023/07/09 11:08:00;;;;;;;2.65;2.58;;;;;;;;;;5977050;29;20261;-71
2023/07/09 11:11:10;;;;;;;2.55;2.45;;;;;;;;;;5976855;29;20249;-71
2023/07/09 11:14:26;;;;;;;1.90;1.90;;;;;;;;;;5970447;29;20254;-71
2023/07/09 11:17:33;;;;;;;1.80;1.80;;;;;;;;;;5977227;29;20340;-70
2023/07/09 11:20:43;;;;;;;2.50;2.50;;;;;;;;;;5990851;29;20310;-69
2023/07/09 11:23:50;;;;;;;2.20;2.20;;;;;;;;;;5977227;29;20253;-70
2023/07/09 11:26:55;;;;;;;2.63;2.40;;;;;;;;;;5977000;29;20449;-71
2023/07/09 11:30:05;;;;;;;2.53;2.40;;;;;;;;;;5978388;29;20248;-71
2023/07/09 11:33:19;;;;;;;2.03;2.03;;;;;;;;;;5976830;29;20248;-70
2023/07/09 11:36:30;;;;;;;2.15;2.13;;;;;;;;;;5976647;29;20253;-70
2023/07/09 11:39:44;;;;;;;2.20;2.13;;;;;;;;;;6002770;29;20252;-71
2023/07/09 11:42:52;;;;;;;2.25;2.20;;;;;;;;;;6003050;29;20270;-71
2023/07/09 11:46:02;;;;;;;2.20;2.20;;;;;;;;;;6003227;29;20256;-71
2023/07/09 11:49:10;;;;;;;2.13;2.13;;;;;;;;;;6002961;29;20248;-71
2023/07/09 11:52:15;;;;;;;2.50;2.25;;;;;;;;;;6001459;29;20444;-70
2023/07/09 11:55:27;;;;;;;2.30;2.20;;;;;;;;;;6003009;29;20248;-70
2023/07/09 11:58:31;;;;;;;3.63;2.17;;;;;;;;;;6002819;29;20247;-70
2023/07/09 12:01:42;;;;;;;2.78;1.90;;;;;;;;;;6002947;29;20548;-70
2023/07/09 12:04:49;;;;;;;1.98;1.98;;;;;;;;;;6003146;29;20247;-70
2023/07/09 12:07:54;;;;;;;2.58;1.90;;;;;;;;;;5990560;29;20244;-71
2023/07/09 12:10:58;;;;;;;2.30;2.15;;;;;;;;;;5979970;29;20257;-70
2023/07/09 12:14:04;;;;;;;1.83;1.83;;;;;;;;;;5979883;29;20257;-70
2023/07/09 12:17:11;;;;;;;1.95;1.95;;;;;;;;;;5979996;29;20303;-70
2023/07/09 12:20:16;;;;;;;1.70;1.70;;;;;;;;;;5981719;29;20241;-72
2023/07/09 12:23:23;;;;;;;1.77;1.70;;;;;;;;;;5980212;29;20276;-71
2023/07/09 12:26:27;;;;;;;2.08;1.95;;;;;;;;;;5980149;29;20244;-70
2023/07/09 12:29:35;;;;;;;1.67;1.67;;;;;;;;;;5979690;29;20276;-71
2023/07/09 12:32:46;;;;;;;2.90;1.67;;;;;;;;;;5979742;29;20253;-70
2023/07/09 12:35:58;;;;;;;1.73;1.73;;;;;;;;;;5980113;29;20254;-70
2023/07/09 12:39:04;;;;;;;1.90;1.80;;;;;;;;;;5980271;29;20268;-70
2023/07/09 12:42:16;;;;;;;3.10;2.10;;;;;;;;;;5979910;29;20272;-71
2023/07/09 12:45:22;;;;;;;1.80;1.80;;;;;;;;;;5979620;29;20244;-71
2023/07/09 12:48:29;;;;;;;1.70;1.60;;;;;;;;;;5979749;29;20300;-71
2023/07/09 12:51:34;;;;;;;1.95;1.88;;;;;;;;;;5979250;29;20565;-71
2023/07/09 12:54:39;;;;;;;2.10;2.10;;;;;;;;;;5979716;29;20248;-70
2023/07/09 12:57:43;;;;;;;1.77;1.67;;;;;;;;;;5979128;29;20245;-69
2023/07/09 13:00:51;;;;;;;1.88;1.88;;;;;;;;;;5979094;29;20253;-69
2023/07/09 13:03:57;;;;;;;1.90;1.90;;;;;;;;;;5979055;29;20272;-70
2023/07/09 13:07:02;;;;;;;1.83;1.83;;;;;;;;;;5978928;29;20324;-70
2023/07/09 13:10:16;;;;;;;1.95;1.90;;;;;;;;;;5979342;29;20529;-71
2023/07/09 13:13:22;;;;;;;1.90;1.90;;;;;;;;;;5972986;29;20248;-71
2023/07/09 13:16:27;;;;;;;2.75;2.75;;;;;;;;;;5978707;29;20304;-71
2023/07/09 13:19:33;;;;;;;3.22;3.03;;;;;;;;;;5978995;29;20248;-70
2023/07/09 13:22:38;;;;;;;4.70;3.20;;;;;;;;;;5978956;29;20272;-71
2023/07/09 13:25:43;;;;;;;2.92;2.85;;;;;;;;;;5999845;29;20280;-70
2023/07/09 13:28:52;;;;;;;2.85;2.75;;;;;;;;;;6001397;29;20532;-71
2023/07/09 13:31:57;;;;;;;3.30;3.00;;;;;;;;;;6001694;29;20289;-70
2023/07/09 13:35:03;;;;;;;3.28;3.17;;;;;;;;;;6001627;29;20243;-70
2023/07/09 13:38:15;;;;;;;2.72;2.72;;;;;;;;;;6001651;29;20263;-70
2023/07/09 13:41:22;;;;;;;2.90;2.90;;;;;;;;;;6001185;29;20520;-71
2023/07/09 13:44:28;;;;;;;2.95;2.85;;;;;;;;;;6000940;29;20279;-70
2023/07/09 13:47:34;;;;;;;2.90;2.70;;;;;;;;;;6001289;29;20537;-70
2023/07/09 13:50:41;;;;;;;2.95;2.85;;;;;;;;;;6001015;29;20252;-71
2023/07/09 13:53:46;;;;;;;2.83;2.83;;;;;;;;;;5999742;29;20295;-70
2023/07/09 13:56:51;;;;;;;3.08;2.83;;;;;;;;;;6001071;29;20256;-71
2023/07/09 13:59:57;;;;;;;2.42;2.35;;;;;;;;;;6001423;29;20259;-72
2023/07/09 14:03:01;;;;;;;2.50;2.40;;;;;;;;;;5984094;29;20303;-71
2023/07/09 14:06:10;;;;;;;2.65;2.55;;;;;;;;;;6000866;29;20263;-70
2023/07/09 14:09:15;;;;;;;3.53;2.58;;;;;;;;;;6000891;29;20255;-70
2023/07/09 14:12:20;;;;;;;2.22;2.22;;;;;;;;;;6000959;29;20256;-71
2023/07/09 14:15:25;;;;;;;2.50;2.50;;;;;;;;;;6000925;29;20252;-71
2023/07/09 14:18:29;;;;;;;2.90;2.78;;;;;;;;;;6020893;29;20294;-70
2023/07/09 14:21:35;;;;;;;2.75;2.58;;;;;;;;;;6023085;29;20251;-70
2023/07/09 14:24:40;;;;;;;2.60;2.60;;;;;;;;;;6022773;29;20271;-70
2023/07/09 14:27:44;;;;;;;2.17;2.17;;;;;;;;;;6022831;29;20259;-70
2023/07/09 14:30:50;;;;;;;2.50;2.40;;;;;;;;;;6022956;29;20246;-71
2023/07/09 14:33:55;;;;;;;2.08;2.08;;;;;;;;;;6023295;29;20247;-71
2023/07/09 14:37:02;;;;;;;2.35;2.35;;;;;;;;;;6022942;29;20259;-70
2023/07/09 14:40:08;;;;;;;2.75;2.70;;;;;;;;;;6022725;29;20246;-71
2023/07/09 14:43:13;;;;;;;2.65;2.65;;;;;;;;;;6022612;29;20271;-70
2023/07/09 14:46:17;;;;;;;2.50;2.40;;;;;;;;;;6023054;29;20247;-71
2023/07/09 14:49:22;;;;;;;2.70;2.33;;;;;;;;;;6024661;29;20250;-70
2023/07/09 14:52:29;;;;;;;2.20;2.20;;;;;;;;;;6023009;29;20255;-71
2023/07/09 14:55:34;;;;;;;2.13;2.13;;;;;;;;;;6022902;29;20259;-71
2023/07/09 14:58:40;;;;;;;2.17;2.17;;;;;;;;;;6022618;29;20248;-69
2023/07/09 15:01:45;;;;;;;2.67;2.58;;;;;;;;;;6022382;29;20247;-70
2023/07/09 15:04:50;;;;;;;2.45;2.35;;;;;;;;;;6022476;29;20286;-70
2023/07/09 15:07:57;;;;;;;2.83;2.67;;;;;;;;;;6009816;29;20252;-70
2023/07/09 15:11:01;;;;;;;4.55;2.35;;;;;;;;;;6000070;29;20248;-70
2023/07/09 15:14:08;;;;;;;2.70;2.50;;;;;;;;;;6002494;29;20256;-70
2023/07/09 15:17:13;;;;;;;2.90;2.80;;;;;;;;;;6003444;29;20328;-71
2023/07/09 15:20:22;;;;;;;2.33;2.33;;;;;;;;;;6004004;29;20281;-71
2023/07/09 15:23:28;;;;;;;2.67;2.53;;;;;;;;;;6003753;29;20264;-71
2023/07/09 15:26:34;;;;;;;2.50;2.30;;;;;;;;;;6003622;29;20247;-70
2023/07/09 15:29:38;;;;;;;3.88;2.30;;;;;;;;;;6003924;29;20247;-71
2023/07/09 15:32:44;;;;;;;6.43;5.93;;;;;;;;;;6003431;29;20255;-71
2023/07/09 15:35:50;;;;;;;2.03;2.03;;;;;;;;;;6003670;29;20248;-71
2023/07/09 15:38:56;;;;;;;2.28;2.28;;;;;;;;;;6018096;29;20508;-71
2023/07/09 15:42:00;;;;;;;1.90;1.90;;;;;;;;;;6003472;29;20261;-70
2023/07/09 15:45:06;;;;;;;2.30;2.15;;;;;;;;;;6003258;29;20312;-71
2023/07/09 15:48:14;;;;;;;2.35;2.30;;;;;;;;;;6003824;29;20513;-70
2023/07/09 15:51:19;;;;;;;4.13;2.00;;;;;;;;;;6003295;29;20251;-71
2023/07/09 15:54:25;;;;;;;3.20;2.40;;;;;;;;;;6003239;29;20254;-69
2023/07/09 15:57:30;;;;;;;2.28;2.00;;;;;;;;;;6003381;29;20520;-71
2023/07/09 16:00:46;;;;;;;2.00;2.00;;;;;;;;;;6002864;29;20493;-70
2023/07/09 16:03:52;;;;;;;3.60;2.30;;;;;;;;;;6002887;29;20271;-71
2023/07/09 16:06:57;;;;;;;2.30;2.20;;;;;;;;;;6008069;29;20504;-71
2023/07/09 16:10:03;;;;;;;2.08;1.98;;;;;;;;;;6025908;29;20239;-72
2023/07/09 16:13:18;;;;;;;2.63;2.20;;;;;;;;;;6025928;29;20251;-70
2023/07/09 16:16:24;;;;;;;2.10;2.10;;;;;;;;;;6026136;29;20335;-70
2023/07/09 16:19:31;;;;;;;4.60;2.03;;;;;;;;;;6025512;29;20267;-70
2023/07/09 16:22:37;;;;;;;2.10;2.00;;;;;;;;;;6025406;29;20446;-70
2023/07/09 16:25:43;;;;;;;2.03;2.03;;;;;;;;;;6024849;29;20267;-71
2023/07/09 16:28:48;;;;;;;1.95;1.95;;;;;;;;;;6025673;29;20508;-70
2023/07/09 16:31:53;;;;;;;2.35;2.22;;;;;;;;;;6025061;29;20247;-70
2023/07/09 16:34:58;;;;;;;2.03;2.03;;;;;;;;;;6026147;29;20250;-72
2023/07/09 16:38:03;;;;;;;1.90;1.90;;;;;;;;;;6024961;29;20507;-71
2023/07/09 16:41:12;;;;;;;1.90;1.90;;;;;;;;;;6025420;29;20246;-70
2023/07/09 16:44:16;;;;;;;2.05;2.00;;;;;;;;;;6024871;29;20531;-70
2023/07/09 16:47:22;;;;;;;2.35;2.25;;;;;;;;;;6025111;29;20247;-71
2023/07/09 16:50:27;;;;;;;2.13;2.03;;;;;;;;;;6024656;29;20359;-70
2023/07/09 16:53:32;;;;;;;2.58;2.58;;;;;;;;;;6024597;29;20246;-69
2023/07/09 16:56:38;;;;;;;4.10;3.60;;;;;;;;;;6024989;29;20251;-70
2023/07/09 16:59:43;;;;;;;2.00;2.00;;;;;;;;;;6024623;29;20444;-69
2023/07/09 17:02:48;;;;;;;1.98;1.98;;;;;;;;;;6024481;29;20252;-70
2023/07/09 17:05:53;;;;;;;2.25;2.15;;;;;;;;;;6024586;29;20476;-71
2023/07/09 17:08:57;;;;;;;2.53;2.40;;;;;;;;;;6004404;29;20260;-70
2023/07/09 17:12:04;;;;;;;2.08;2.08;;;;;;;;;;6001955;29;20252;-70
2023/07/09 17:15:20;;;;;;;2.05;2.05;;;;;;;;;;6001439;29;20256;-70
2023/07/09 17:18:27;;;;;;;2.10;2.10;;;;;;;;;;6001628;29;20456;-71
2023/07/09 17:21:32;;;;;;;2.00;2.00;;;;;;;;;;6001561;29;20335;-71
2023/07/09 17:24:37;;;;;;;1.98;1.98;;;;;;;;;;6001698;29;20271;-70
2023/07/09 17:27:42;;;;;;;2.00;1.90;;;;;;;;;;6001414;29;20247;-70
2023/07/09 17:30:48;;;;;;;2.20;2.20;;;;;;;;;;6002437;29;20263;-69
2023/07/09 17:33:53;;;;;;;2.20;2.20;;;;;;;;;;6001440;29;20525;-70
2023/07/09 17:36:57;;;;;;;2.72;2.45;;;;;;;;;;6000798;29;20544;-70
2023/07/09 17:40:02;;;;;;;1.92;1.92;;;;;;;;;;6001418;29;20247;-70
2023/07/09 17:43:14;;;;;;;2.15;2.05;;;;;;;;;;6001327;29;20247;-70
2023/07/09 17:46:18;;;;;;;2.15;2.10;;;;;;;;;;6000856;29;20267;-70
2023/07/09 17:49:26;;;;;;;2.42;2.28;;;;;;;;;;6000889;29;20244;-71
2023/07/09 17:52:30;;;;;;;2.63;2.42;;;;;;;;;;6000744;29;20260;-71
2023/07/09 17:55:35;;;;;;;1.90;1.90;;;;;;;;;;6001241;29;20255;-71
2023/07/09 17:58:43;;;;;;;2.00;2.00;;;;;;;;;;6001216;29;20247;-72
2023/07/09 18:01:51;;;;;;;2.03;1.92;;;;;;;;;;6000986;29;20248;-70
2023/07/09 18:04:56;;;;;;;1.88;1.88;;;;;;;;;;6014556;29;20473;-70
2023/07/09 18:08:01;;;;;;;2.03;2.03;;;;;;;;;;6014023;29;20256;-70
2023/07/09 18:11:05;;;;;;;1.95;1.95;;;;;;;;;;6023473;29;20276;-71
2023/07/09 18:14:19;;;;;;;2.00;2.00;;;;;;;;;;6023304;29;20239;-69
2023/07/09 18:17:28;;;;;;;3.50;1.90;;;;;;;;;;6023077;29;20295;-70
2023/07/09 18:20:33;;;;;;;2.10;1.88;;;;;;;;;;6021328;29;20274;-70
2023/07/09 18:23:38;;;;;;;1.90;1.90;;;;;;;;;;6023182;29;20547;-70
2023/07/09 18:26:43;;;;;;;2.22;2.13;;;;;;;;;;6022753;29;20465;-70
2023/07/09 18:29:51;;;;;;;2.83;2.72;;;;;;;;;;6022803;29;20251;-70
2023/07/09 18:32:57;;;;;;;1.90;1.90;;;;;;;;;;6006704;29;20278;-70
2023/07/09 18:36:02;;;;;;;1.77;1.77;;;;;;;;;;6023082;29;20246;-70
2023/07/09 18:39:07;;;;;;;1.60;1.60;;;;;;;;;;6022797;29;20335;-70